»·PEaware :: N4657 KLAX-KSAN

N4657 :: KLAX-KSAN

FLIGHT INFORMATION

Flight Status: Arrived
Operator: Privately registered:
United States
More flights under this callsign
Pilot: Daniel P. (20187)
Aircraft: PILATUS PC-12 EAGLE
(PC12)
More flights by this aircraft type
Origin: KLAX Los Angeles Intl
United States
Destination: KSAN San Diego Intl-Lindbergh
United States
More flights between these airports :: More routes between these airports
Route: +
File this flight plan on PilotEdge
Remarks:
Altitude:
(Current/Filed)
0ft
Speed:
(Current/Filed)
0kts
Departed: 05-Sep-18 01:15 PM
Arrived: 05-Sep-18 02:05 PM
Distance/Time
Traveled:
94nm/0:50
Distance/Time
To Go:
Arrived

Flight Plot

Page will automatically refresh every two minutes.


Map Options




Map Legend


Flown Route
Filed Route
Departure Airport
Arrival Airport
Navaid (VOR, NDB)
Fix

Horizontal Profiles

Position Reports

Time Latitude Longitude Heading Altitude Ground
Speed
05-Sep-18 13:10 33.932964 -118.403700 172 116ft 0kts
05-Sep-18 13:11 33.934066 -118.402892 80 115ft 14kts
05-Sep-18 13:12 33.934629 -118.397451 83 108ft 13kts
05-Sep-18 13:13 33.935202 -118.391777 83 102ft 18kts
05-Sep-18 13:14 33.935782 -118.386154 83 99ft 15kts
05-Sep-18 13:15 33.936054 -118.383436 81 96ft 0kts
05-Sep-18 13:16 33.936830 -118.382844 353 96ft 9kts
05-Sep-18 13:17 33.936590 -118.390438 262 100ft 109kts
05-Sep-18 13:18 33.934285 -118.429997 266 1843ft 124kts
05-Sep-18 13:19 33.932622 -118.468923 266 2502ft 119kts
05-Sep-18 13:20 33.930861 -118.508266 266 2496ft 109kts
05-Sep-18 13:21 33.915046 -118.529303 172 2501ft 104kts
05-Sep-18 13:22 33.886426 -118.524407 171 2499ft 104kts
05-Sep-18 13:23 33.848057 -118.517483 171 2505ft 176kts
05-Sep-18 13:24 33.798728 -118.508759 171 2499ft 176kts
05-Sep-18 13:25 33.750803 -118.500256 171 2499ft 172kts
05-Sep-18 13:26 33.708119 -118.492665 171 2946ft 143kts
05-Sep-18 13:27 33.669461 -118.485713 171 3313ft 139kts
05-Sep-18 13:28 33.631347 -118.478834 171 3647ft 138kts
05-Sep-18 13:29 33.593215 -118.471763 171 3982ft 138kts
05-Sep-18 13:30 33.565070 -118.444455 128 4375ft 134kts
05-Sep-18 13:31 33.542793 -118.409607 112 4842ft 128kts
05-Sep-18 13:32 33.535325 -118.368433 99 5296ft 126kts
05-Sep-18 13:33 33.528712 -118.327221 101 5724ft 125kts
05-Sep-18 13:34 33.521883 -118.286335 101 6133ft 129kts
05-Sep-18 13:35 33.511890 -118.236642 109 7016ft 164kts
05-Sep-18 13:36 33.495791 -118.181781 109 7502ft 193kts
05-Sep-18 13:37 33.477033 -118.118196 109 7473ft 209kts
05-Sep-18 13:38 33.455254 -118.053435 125 7463ft 210kts
05-Sep-18 13:39 33.421714 -117.996386 123 7461ft 205kts
05-Sep-18 13:40 33.392167 -117.942868 123 7462ft 186kts
05-Sep-18 13:41 33.360206 -117.895873 137 7462ft 179kts
05-Sep-18 13:42 33.327131 -117.857486 122 7463ft 158kts
05-Sep-18 13:43 33.303985 -117.814397 122 7462ft 151kts
05-Sep-18 13:44 33.280145 -117.772614 131 7333ft 154kts
05-Sep-18 13:45 33.249326 -117.736761 144 7132ft 155kts
05-Sep-18 13:46 33.210975 -117.713502 157 6789ft 156kts
05-Sep-18 13:47 33.168472 -117.693255 158 6112ft 168kts
05-Sep-18 13:48 33.125414 -117.684018 196 5306ft 150kts
05-Sep-18 13:48 33.097043 -117.698742 146 4454ft 144kts
05-Sep-18 13:50 33.062032 -117.664999 151 4147ft 139kts
05-Sep-18 13:51 33.027058 -117.644641 150 4256ft 140kts
05-Sep-18 13:51 33.010515 -117.611646 100 4688ft 168kts
05-Sep-18 13:53 32.998926 -117.541989 101 5461ft 194kts
05-Sep-18 13:54 32.989445 -117.485819 100 5460ft 158kts
05-Sep-18 13:54 32.982465 -117.444234 100 5462ft 150kts
05-Sep-18 13:55 32.974409 -117.396253 104 5462ft 146kts
05-Sep-18 13:56 32.962721 -117.349926 107 5463ft 145kts
05-Sep-18 13:57 32.951150 -117.304119 118 5462ft 145kts
05-Sep-18 13:58 32.916624 -117.282424 163 5463ft 145kts
05-Sep-18 13:59 32.877809 -117.268454 163 4738ft 157kts
05-Sep-18 14:00 32.834248 -117.252794 163 3742ft 167kts
05-Sep-18 14:01 32.791314 -117.235161 150 2546ft 159kts
05-Sep-18 14:02 32.763244 -117.198893 107 1314ft 149kts
05-Sep-18 14:03 32.753007 -117.159906 107 1259ft 95kts
05-Sep-18 14:04 32.732093 -117.154852 210 1126ft 75kts
05-Sep-18 14:05 32.730668 -117.178165 286 118ft 76kts
05-Sep-18 14:06 32.734297 -117.194674 250 17ft 8kts
05-Sep-18 14:07 32.734233 -117.194888 248 17ft 0kts
05-Sep-18 14:08 32.734233 -117.194888 248 17ft 0kts
05-Sep-18 14:09 32.734233 -117.194888 248 17ft 0kts
05-Sep-18 14:10 32.734221 -117.194925 248 17ft 3kts
05-Sep-18 14:11 32.735046 -117.200190 287 14ft 20kts
05-Sep-18 14:12 32.735351 -117.204550 260 14ft 11kts
05-Sep-18 14:13 32.734207 -117.206183 91 14ft 0kts
05-Sep-18 14:14 32.734207 -117.206181 90 14ft 0kts
05-Sep-18 14:15 32.734207 -117.206181 90 14ft 0kts
05-Sep-18 14:16 32.734207 -117.206181 90 14ft 0kts
05-Sep-18 14:17 32.734207 -117.206181 90 14ft 0kts
05-Sep-18 14:18 32.734207 -117.206181 90 14ft 0kts
05-Sep-18 14:19 32.734207 -117.206181 90 14ft 0kts
05-Sep-18 14:20 32.734207 -117.206181 90 14ft 0kts

Navigation Log

Ident Type
1. KLAX Airport
2. KSAN Airport